Time;durP1;ratioP1;P1;durP2;ratioP2;P2;SDS_P1;SDS_P2;PMS_P1;PMS_P2;Temp;Humidity;BMP_temperature;BMP_pressure;BME280_temperature;BME280_humidity;BME280_pressure;Samples;Min_cycle;Max_cycle;Signal;HPM_P1;HPM_P2
2023/09/13 00:01:47;;;;;;;6.85;3.13;;;;;;;21.49;50.88;99892.34;4839206;29;20041;-43
2023/09/13 00:04:13;;;;;;;4.90;3.15;;;;;;;21.48;50.85;99888.03;4839294;29;20067;-43
2023/09/13 00:06:39;;;;;;;6.10;3.50;;;;;;;21.65;49.84;99877.72;4839688;29;20520;-44
2023/09/13 00:09:06;;;;;;;5.03;3.10;;;;;;;21.86;49.61;99896.66;4839339;29;20460;-45
2023/09/13 00:11:32;;;;;;;4.95;3.00;;;;;;;21.97;48.78;99892.81;4839325;29;20037;-44
2023/09/13 00:13:58;;;;;;;5.25;3.17;;;;;;;21.88;48.64;99889.06;4839343;29;20026;-46
2023/09/13 00:16:24;;;;;;;5.35;3.25;;;;;;;21.88;48.15;99894.47;4845773;29;20029;-41
2023/09/13 00:18:51;;;;;;;3.95;3.10;;;;;;;21.94;48.27;99895.28;4857794;29;20125;-43
2023/09/13 00:21:17;;;;;;;6.82;3.17;;;;;;;21.92;48.62;99889.31;4857121;29;20045;-43
2023/09/13 00:23:43;;;;;;;5.68;3.00;;;;;;;21.99;48.93;99897.94;4857307;29;20076;-45
2023/09/13 00:26:09;;;;;;;5.75;3.10;;;;;;;22.04;49.09;99896.03;4857259;29;20048;-43
2023/09/13 00:28:34;;;;;;;6.32;3.22;;;;;;;22.11;49.08;99895.75;4858019;29;20470;-41
2023/09/13 00:31:00;;;;;;;4.25;2.92;;;;;;;22.15;48.73;99899.53;4858043;29;20040;-45
2023/09/13 00:33:25;;;;;;;5.38;3.25;;;;;;;22.10;48.68;99896.81;4857994;29;20366;-43
2023/09/13 00:35:56;;;;;;;4.45;3.10;;;;;;;22.18;48.77;99904.41;4858300;29;20394;-43
2023/09/13 00:38:22;;;;;;;4.07;3.08;;;;;;;22.23;48.36;99907.06;4858102;29;20063;-41
2023/09/13 00:40:47;;;;;;;7.45;3.97;;;;;;;22.16;48.46;99892.19;4858481;29;20025;-42
2023/09/13 00:43:13;;;;;;;5.97;3.30;;;;;;;22.18;48.92;99901.69;4857956;29;20467;-43
2023/09/13 00:45:39;;;;;;;5.65;3.20;;;;;;;22.15;48.92;99902.25;4857911;29;20498;-44
2023/09/13 00:48:05;;;;;;;5.30;3.20;;;;;;;22.15;48.98;99901.44;4858090;29;20089;-42
2023/09/13 00:50:31;;;;;;;5.15;3.30;;;;;;;22.11;49.26;99903.88;4857620;29;20026;-44
2023/09/13 00:52:57;;;;;;;4.93;3.28;;;;;;;22.09;49.09;99913.38;4857898;29;20036;-45
2023/09/13 00:55:25;;;;;;;5.82;3.40;;;;;;;22.08;49.37;99907.13;4858053;29;20352;-43
2023/09/13 00:57:51;;;;;;;4.40;3.45;;;;;;;22.04;49.29;99906.88;4857938;29;20039;-45
2023/09/13 01:00:18;;;;;;;4.85;3.35;;;;;;;22.01;49.36;99902.03;4857870;29;20066;-44
2023/09/13 01:02:44;;;;;;;5.22;3.22;;;;;;;22.00;49.38;99910.41;4858208;29;20105;-47
2023/09/13 01:05:14;;;;;;;8.32;3.50;;;;;;;21.98;49.46;99909.88;4857861;29;20450;-41
2023/09/13 01:07:41;;;;;;;5.47;3.50;;;;;;;21.93;49.64;99907.19;4859959;29;20394;-43
2023/09/13 01:10:07;;;;;;;5.93;3.65;;;;;;;21.94;49.40;99908.81;4861484;29;20528;-40
2023/09/13 01:12:33;;;;;;;7.55;3.55;;;;;;;21.79;50.22;99912.38;4861318;29;20033;-46
2023/09/13 01:15:00;;;;;;;5.88;3.80;;;;;;;21.70;50.36;99912.09;4860883;29;20037;-42
2023/09/13 01:17:38;;;;;;;5.30;3.53;;;;;;;21.57;50.96;99910.78;4861240;29;20030;-45
2023/09/13 01:20:16;;;;;;;5.40;3.70;;;;;;;21.64;51.23;99911.28;4861100;29;20033;-46
2023/09/13 01:23:23;;;;;;;6.55;3.55;;;;;;;21.61;51.34;99913.72;4861313;29;20033;-44
2023/09/13 01:25:59;;;;;;;8.43;3.90;;;;;;;21.52;51.99;99915.38;4859723;29;20089;-43
2023/09/13 01:28:25;;;;;;;5.82;3.80;;;;;;;21.50;51.71;99912.94;4860752;29;20037;-41
2023/09/13 01:30:51;;;;;;;6.15;3.78;;;;;;;21.54;51.92;99911.31;4861157;29;20044;-43
2023/09/13 01:33:17;;;;;;;4.82;3.30;;;;;;;21.58;51.48;99911.56;4861388;29;20029;-44
2023/09/13 01:35:43;;;;;;;6.97;3.55;;;;;;;21.65;51.76;99914.81;4861045;29;20034;-44
2023/09/13 01:38:09;;;;;;;7.20;3.30;;;;;;;21.63;51.89;99915.09;4861237;29;20037;-45
2023/09/13 01:40:39;;;;;;;4.45;3.53;;;;;;;21.64;51.95;99922.13;4860907;29;20538;-42
2023/09/13 01:43:06;;;;;;;6.60;3.50;;;;;;;21.65;51.88;99920.25;4860982;29;20033;-46
2023/09/13 01:45:35;;;;;;;9.68;3.88;;;;;;;21.60;51.91;99917.53;4861084;29;20034;-43
2023/09/13 01:48:01;;;;;;;;;;;;;;;21.93;51.67;99918.00;4857697;29;20172;-41
2023/09/13 01:50:27;;;;;;;4.72;3.40;;;;;;;21.67;51.85;99909.94;4860708;29;19916;-42
2023/09/13 01:52:53;;;;;;;6.13;3.60;;;;;;;21.62;52.14;99913.47;4860875;29;20153;-44
2023/09/13 01:55:18;;;;;;;7.68;3.55;;;;;;;21.62;52.06;99915.38;4860890;29;20036;-44
2023/09/13 01:57:43;;;;;;;4.95;3.30;;;;;;;21.57;52.18;99909.94;4860250;29;20186;-44
2023/09/13 02:00:09;;;;;;;7.10;3.53;;;;;;;21.66;51.82;99902.91;4860038;29;20054;-45
2023/09/13 02:02:35;;;;;;;6.82;3.88;;;;;;;21.66;51.90;99909.13;4860534;29;20033;-42
2023/09/13 02:05:00;;;;;;;5.82;3.53;;;;;;;21.63;52.00;99915.09;4860270;29;20036;-45
2023/09/13 02:07:26;;;;;;;7.05;3.70;;;;;;;21.63;52.05;99914.28;4859971;29;20044;-43
2023/09/13 02:09:52;;;;;;;8.63;3.75;;;;;;;21.55;52.35;99912.94;4860119;29;20033;-47
2023/09/13 02:12:17;;;;;;;7.53;3.97;;;;;;;21.43;52.76;99902.34;4860418;29;20102;-44
2023/09/13 02:14:43;;;;;;;6.05;4.10;;;;;;;21.46;52.71;99914.56;4860163;29;20033;-45
2023/09/13 02:17:09;;;;;;;7.70;3.42;;;;;;;21.51;52.73;99914.56;4860165;29;20260;-46
2023/09/13 02:19:37;;;;;;;6.97;3.55;;;;;;;21.44;52.86;99916.75;4857195;29;20048;-46
2023/09/13 02:22:03;;;;;;;6.30;3.67;;;;;;;21.45;52.34;99911.03;4840945;29;20435;-44
2023/09/13 02:24:28;;;;;;;8.27;4.20;;;;;;;21.46;52.34;99917.28;4840884;29;20054;-41
2023/09/13 02:26:58;;;;;;;5.97;3.92;;;;;;;21.40;52.32;99921.84;4840647;29;20065;-43
2023/09/13 02:29:24;;;;;;;10.13;4.07;;;;;;;21.31;52.39;99915.34;4840989;29;20444;-44
2023/09/13 02:31:50;;;;;;;7.78;3.80;;;;;;;21.30;52.09;99921.84;4855390;29;20112;-43
2023/09/13 02:34:15;;;;;;;5.40;3.80;;;;;;;21.27;51.71;99923.19;4841191;29;20109;-42
2023/09/13 02:36:41;;;;;;;10.35;3.92;;;;;;;21.27;52.17;99920.50;4841123;29;20025;-46
2023/09/13 02:39:32;;;;;;;10.48;4.07;;;;;;;21.24;52.05;99910.19;4841090;29;20763;-44
2023/09/13 02:41:57;;;;;;;9.10;3.65;;;;;;;21.19;51.87;99912.91;4841133;29;20116;-47
2023/09/13 02:44:24;;;;;;;6.50;3.83;;;;;;;21.22;52.08;99917.78;4840899;29;20482;-43
2023/09/13 02:46:49;;;;;;;7.32;3.70;;;;;;;21.07;51.43;99921.25;4841293;29;20109;-44
2023/09/13 02:49:14;;;;;;;4.68;3.33;;;;;;;21.07;52.01;99912.34;4841275;29;20105;-44
2023/09/13 02:51:40;;;;;;;7.03;3.80;;;;;;;21.11;52.70;99926.16;4841199;29;20101;-43
2023/09/13 02:54:05;;;;;;;7.65;3.90;;;;;;;21.14;52.66;99918.31;4841370;29;20109;-40
2023/09/13 02:56:31;;;;;;;7.53;3.95;;;;;;;21.11;52.46;99923.44;4841297;29;20103;-45
2023/09/13 02:58:56;;;;;;;6.85;4.03;;;;;;;21.15;52.62;99922.66;4840835;29;20452;-45
2023/09/13 03:01:22;;;;;;;8.70;4.45;;;;;;;21.01;52.21;99921.53;4841076;29;20126;-45
2023/09/13 03:03:48;;;;;;;10.18;4.50;;;;;;;21.04;51.96;99921.03;4841058;29;20117;-43
2023/09/13 03:06:15;;;;;;;11.93;4.57;;;;;;;20.89;52.15;99919.91;4840743;29;20494;-46
2023/09/13 03:08:41;;;;;;;8.23;4.20;;;;;;;20.93;51.79;99922.09;4840914;29;20478;-43
2023/09/13 03:11:14;;;;;;;8.80;4.40;;;;;;;20.79;52.88;99917.19;4840949;29;20117;-46
2023/09/13 03:13:39;;;;;;;8.38;4.18;;;;;;;20.78;53.07;99917.44;4841036;29;20061;-45
2023/09/13 03:16:15;;;;;;;7.50;3.55;;;;;;;20.90;53.06;99926.13;4840549;29;20391;-42
2023/09/13 03:18:41;;;;;;;9.80;4.50;;;;;;;20.86;53.01;99925.84;4840530;29;20113;-45
2023/09/13 03:21:08;;;;;;;9.93;3.97;;;;;;;20.86;52.76;99925.84;4854414;29;20182;-43
2023/09/13 03:23:39;;;;;;;9.25;4.10;;;;;;;20.87;52.94;99935.59;4858497;29;20040;-42
2023/09/13 03:26:18;;;;;;;9.15;4.38;;;;;;;20.91;52.46;99932.34;4859151;29;20116;-44
2023/09/13 03:28:49;;;;;;;8.73;4.80;;;;;;;20.97;52.57;99934.78;4858716;29;20083;-44
2023/09/13 03:31:17;;;;;;;10.63;4.50;;;;;;;20.94;52.38;99929.09;4857559;29;20055;-44
2023/09/13 03:33:43;;;;;;;11.43;5.95;;;;;;;20.96;52.36;99924.22;4843417;29;20026;-45
2023/09/13 03:36:10;;;;;;;10.68;5.30;;;;;;;20.89;52.35;99924.50;4840454;29;20168;-44
2023/09/13 03:38:40;;;;;;;9.13;4.53;;;;;;;20.90;52.76;99920.69;4840464;29;20060;-42
2023/09/13 03:41:08;;;;;;;;;;;;;;;21.15;51.80;99922.66;4841005;29;20045;-42
2023/09/13 03:43:34;;;;;;;17.80;5.00;;;;;;;20.88;52.01;99931.78;4840170;29;19942;-41
2023/09/13 03:46:00;;;;;;;12.02;5.18;;;;;;;20.76;52.52;99939.34;4840270;29;20588;-46
2023/09/13 03:48:25;;;;;;;8.80;4.80;;;;;;;20.74;52.55;99938.78;4844379;29;20030;-46
2023/09/13 03:50:51;;;;;;;10.50;4.95;;;;;;;20.74;53.21;99940.69;4858541;29;20030;-46
2023/09/13 03:53:17;;;;;;;10.05;4.55;;;;;;;20.64;53.60;99939.56;4858445;29;20474;-42
2023/09/13 03:55:43;;;;;;;84.18;45.08;;;;;;;20.69;53.33;99941.47;4858276;29;20521;-41
2023/09/13 03:58:08;;;;;;;13.48;7.00;;;;;;;20.53;53.27;99932.47;4858527;29;20033;-43
2023/09/13 04:00:36;;;;;;;10.52;5.43;;;;;;;20.54;53.41;99939.50;4857890;29;20403;-45
2023/09/13 04:03:03;;;;;;;12.40;5.63;;;;;;;20.42;53.49;99934.31;4859233;29;20061;-43
2023/09/13 04:05:29;;;;;;;8.27;5.20;;;;;;;20.37;53.77;99942.44;4858866;29;20029;-42
2023/09/13 04:07:54;;;;;;;8.23;4.80;;;;;;;20.37;53.84;99945.13;4859085;29;20033;-42
2023/09/13 04:10:20;;;;;;;9.43;5.22;;;;;;;20.23;54.20;99944.75;4859186;29;20033;-42
2023/09/13 04:12:45;;;;;;;8.95;5.00;;;;;;;20.29;54.50;99951.00;4859294;29;20068;-43
2023/09/13 04:15:11;;;;;;;12.68;4.85;;;;;;;20.37;54.23;99958.63;4858839;29;20470;-42
2023/09/13 04:17:36;;;;;;;13.10;5.65;;;;;;;20.41;54.04;99959.72;4859188;29;20029;-38
2023/09/13 04:20:02;;;;;;;9.02;5.38;;;;;;;20.55;54.01;99961.94;4853253;29;20034;-39
2023/09/13 04:22:28;;;;;;;16.30;8.00;;;;;;;20.61;53.72;99969.84;4840423;29;20515;-36
2023/09/13 04:24:53;;;;;;;13.57;6.70;;;;;;;20.62;54.96;99971.47;4840260;29;20121;-38
2023/09/13 04:27:22;;;;;;;10.93;5.53;;;;;;;20.79;53.66;99963.16;4840840;29;20053;-37
2023/09/13 04:29:48;;;;;;;14.02;5.13;;;;;;;20.94;53.04;99964.25;4858577;29;20033;-41
2023/09/13 04:32:13;;;;;;;10.82;5.05;;;;;;;20.93;53.36;99962.66;4859094;29;20040;-38
2023/09/13 04:34:39;;;;;;;10.75;5.47;;;;;;;21.08;52.83;99963.50;4858898;29;20029;-39
2023/09/13 04:37:05;;;;;;;12.45;5.55;;;;;;;21.18;52.24;99959.97;4859028;29;20070;-39
2023/09/13 04:39:31;;;;;;;10.07;5.43;;;;;;;21.29;51.80;99961.63;4858860;29;20025;-39
2023/09/13 04:41:58;;;;;;;10.52;5.05;;;;;;;21.55;51.32;99963.56;4859756;29;20044;-40
2023/09/13 04:44:26;;;;;;;6.68;4.93;;;;;;;21.80;50.68;99968.13;4862595;29;20040;-38
2023/09/13 04:46:57;;;;;;;9.15;4.95;;;;;;;22.06;50.08;99963.50;4861292;29;20040;-39
2023/09/13 04:49:22;;;;;;;8.00;5.07;;;;;;;22.37;49.11;99963.44;4861797;29;20506;-39
2023/09/13 04:51:48;;;;;;;8.38;5.32;;;;;;;22.59;48.67;99968.53;4861848;29;20113;-40
2023/09/13 04:54:13;;;;;;;8.32;4.72;;;;;;;22.91;48.29;99964.56;4861742;29;20198;-39
2023/09/13 04:56:38;;;;;;;7.43;4.70;;;;;;;23.30;47.32;99963.81;4862036;29;20037;-39
2023/09/13 04:59:04;;;;;;;10.13;6.13;;;;;;;23.59;46.47;99967.38;4862076;29;20140;-38
2023/09/13 05:01:30;;;;;;;10.27;5.60;;;;;;;23.74;45.98;99963.72;4861449;29;20090;-39
2023/09/13 05:03:56;;;;;;;9.77;4.85;;;;;;;23.91;45.69;99962.50;4860931;29;20075;-37
2023/09/13 05:06:22;;;;;;;10.05;4.72;;;;;;;24.13;44.86;99960.09;4861978;29;20508;-39
2023/09/13 05:08:49;;;;;;;10.18;4.60;;;;;;;24.44;44.10;99962.44;4861770;29;20037;-40
2023/09/13 05:11:15;;;;;;;10.90;5.47;;;;;;;24.78;43.70;99962.31;4861281;29;20173;-39
2023/09/13 05:13:40;;;;;;;13.10;8.20;;;;;;;25.02;42.85;99960.63;4861241;29;20022;-38
2023/09/13 05:16:06;;;;;;;7.50;4.50;;;;;;;25.32;41.79;99960.22;4860875;29;20037;-40
2023/09/13 05:18:31;;;;;;;7.63;4.55;;;;;;;25.58;41.85;99959.00;4852944;29;20135;-39
2023/09/13 05:20:57;;;;;;;7.85;5.00;;;;;;;25.73;41.56;99959.53;4858356;29;20036;-40
2023/09/13 05:23:22;;;;;;;6.85;4.40;;;;;;;25.93;41.24;99966.56;4856840;29;20080;-40
2023/09/13 05:25:51;;;;;;;7.35;4.65;;;;;;;26.16;40.58;99965.88;4852518;29;20038;-38
2023/09/13 05:28:16;;;;;;;7.57;4.67;;;;;;;26.37;40.04;99969.84;4860889;29;20044;-39
2023/09/13 05:30:46;;;;;;;8.80;4.88;;;;;;;26.75;39.29;99969.63;4860570;29;20025;-40
2023/09/13 05:33:12;;;;;;;7.30;4.70;;;;;;;27.15;38.62;99975.28;4859933;29;20038;-40
2023/09/13 05:35:37;;;;;;;8.50;4.18;;;;;;;27.52;37.99;99967.88;4860567;29;20029;-39
2023/09/13 05:38:03;;;;;;;6.65;4.43;;;;;;;27.76;37.06;99974.91;4860255;29;20029;-39
2023/09/13 05:40:30;;;;;;;8.50;4.10;;;;;;;28.11;36.59;99972.41;4855739;29;20451;-37
2023/09/13 05:42:57;;;;;;;13.45;4.00;;;;;;;28.53;35.76;99973.69;4849137;29;20482;-39
2023/09/13 05:45:23;;;;;;;7.18;4.13;;;;;;;28.57;35.24;99976.59;4850273;29;20596;-40
2023/09/13 05:47:49;;;;;;;7.85;3.90;;;;;;;28.89;34.60;99969.91;4850063;29;20113;-41
2023/09/13 05:50:15;;;;;;;6.25;3.92;;;;;;;28.68;34.43;99977.13;4851640;29;20034;-39
2023/09/13 05:52:41;;;;;;;4.75;3.75;;;;;;;28.97;33.59;99974.56;4849684;29;20048;-39
2023/09/13 05:55:08;;;;;;;6.78;3.90;;;;;;;28.80;34.10;99974.56;4856220;29;20057;-40
2023/09/13 05:57:33;;;;;;;7.05;3.75;;;;;;;29.18;33.79;99976.69;4847878;29;20173;-41
2023/09/13 05:59:59;;;;;;;8.48;4.00;;;;;;;29.83;32.72;99977.59;4857528;29;20511;-41
2023/09/13 06:02:24;;;;;;;6.28;3.63;;;;;;;30.23;31.69;99977.28;4859876;29;20120;-40
2023/09/13 06:04:50;;;;;;;7.10;3.60;;;;;;;30.59;30.84;99976.78;4858983;29;20097;-39
2023/09/13 06:07:15;;;;;;;8.20;3.67;;;;;;;30.45;30.89;99973.50;4859887;29;20037;-39
2023/09/13 06:09:41;;;;;;;6.13;3.70;;;;;;;30.85;30.59;99980.53;4859295;29;20642;-40
2023/09/13 06:12:06;;;;;;;5.50;3.45;;;;;;;31.20;29.93;99983.03;4859324;29;20515;-41
2023/09/13 06:14:32;;;;;;;7.63;3.47;;;;;;;31.58;29.06;99980.09;4857897;29;20506;-39
2023/09/13 06:16:58;;;;;;;4.53;3.25;;;;;;;31.75;28.56;99977.16;4842505;29;20036;-41
2023/09/13 06:19:23;;;;;;;5.53;3.50;;;;;;;31.87;28.39;99989.34;4844673;29;20026;-40
2023/09/13 06:21:49;;;;;;;5.45;3.50;;;;;;;32.11;27.92;99983.91;4842041;29;20033;-40
2023/09/13 06:24:14;;;;;;;5.28;3.30;;;;;;;32.43;27.29;99980.59;4841093;29;20044;-39
2023/09/13 06:26:40;;;;;;;6.35;3.35;;;;;;;32.61;27.32;99983.94;4857798;29;20033;-39
2023/09/13 06:29:05;;;;;;;4.15;3.25;;;;;;;32.87;27.44;99987.09;4859552;29;20037;-44
2023/09/13 06:31:33;;;;;;;5.95;3.33;;;;;;;32.69;27.16;99985.75;4859909;29;20143;-40
2023/09/13 06:33:59;;;;;;;7.80;3.70;;;;;;;32.66;27.09;99976.22;4859881;29;20061;-43
2023/09/13 06:36:24;;;;;;;5.55;3.28;;;;;;;32.81;27.20;99987.69;4859860;29;20060;-41
2023/09/13 06:38:50;;;;;;;7.50;3.65;;;;;;;33.02;26.99;99982.00;4859029;29;20467;-40
2023/09/13 06:41:16;;;;;;;6.15;4.20;;;;;;;33.16;27.20;99978.88;4858693;29;20395;-43
2023/09/13 06:43:43;;;;;;;5.97;3.22;;;;;;;33.47;27.07;99981.75;4858777;29;20034;-39
2023/09/13 06:46:09;;;;;;;5.68;3.40;;;;;;;33.50;27.04;99981.03;4858637;29;20038;-39
2023/09/13 06:48:35;;;;;;;5.10;3.47;;;;;;;33.80;26.80;99990.91;4858922;29;20033;-40
2023/09/13 06:51:01;;;;;;;8.02;3.45;;;;;;;33.81;26.30;99990.53;4858471;29;20033;-40
2023/09/13 06:53:26;;;;;;;5.25;3.45;;;;;;;33.18;26.95;99991.16;4858425;29;20048;-40
2023/09/13 06:55:52;;;;;;;8.38;3.80;;;;;;;33.16;27.39;99987.94;4858530;29;20029;-39
2023/09/13 06:58:17;;;;;;;4.93;3.40;;;;;;;33.14;27.60;99983.94;4858723;29;20509;-41
2023/09/13 07:00:42;;;;;;;7.78;3.50;;;;;;;33.26;27.14;99986.66;4858203;29;20071;-41
2023/09/13 07:03:08;;;;;;;3.88;3.30;;;;;;;33.60;27.11;99984.44;4858731;29;20112;-41
2023/09/13 07:05:34;;;;;;;6.35;3.13;;;;;;;33.91;26.51;99983.72;4858203;29;20466;-41
2023/09/13 07:08:00;;;;;;;4.03;2.95;;;;;;;34.20;25.93;99979.72;4859216;29;20045;-39
2023/09/13 07:10:26;;;;;;;4.32;3.08;;;;;;;34.19;25.83;99978.09;4859246;29;20042;-43
2023/09/13 07:12:52;;;;;;;5.95;3.10;;;;;;;33.90;26.34;99971.06;4851835;29;20033;-39
2023/09/13 07:15:18;;;;;;;6.10;3.50;;;;;;;33.97;26.48;99975.97;4858737;29;20036;-43
2023/09/13 07:17:44;;;;;;;6.85;4.90;;;;;;;33.72;26.48;99967.84;4858996;29;20117;-42
2023/09/13 07:20:10;;;;;;;5.70;3.88;;;;;;;32.79;27.99;99971.50;4858958;29;20133;-40
2023/09/13 07:22:36;;;;;;;7.07;3.83;;;;;;;33.14;27.84;99978.44;4858959;29;20034;-41
2023/09/13 07:25:04;;;;;;;6.50;3.60;;;;;;;33.76;27.28;99970.69;4855675;29;20031;-41
2023/09/13 07:27:30;;;;;;;4.53;3.30;;;;;;;34.45;25.98;99974.00;4857893;29;20025;-41
2023/09/13 07:29:55;;;;;;;5.13;3.60;;;;;;;34.55;26.05;99975.38;4850155;29;20034;-41
2023/09/13 07:32:21;;;;;;;6.40;3.30;;;;;;;34.27;26.50;99976.31;4849718;29;20037;-40
2023/09/13 07:34:46;;;;;;;6.00;3.15;;;;;;;33.94;27.01;99966.41;4851379;29;20029;-41
2023/09/13 07:37:12;;;;;;;6.97;3.00;;;;;;;34.26;26.42;99971.97;4855367;29;20034;-40
2023/09/13 07:39:38;;;;;;;7.32;3.35;;;;;;;34.52;26.53;99967.81;4858056;29;20035;-40
2023/09/13 07:42:05;;;;;;;6.95;3.50;;;;;;;34.59;26.05;99967.97;4858783;29;20051;-41
2023/09/13 07:44:30;;;;;;;8.02;3.70;;;;;;;34.80;26.08;99967.69;4858446;29;20037;-42
2023/09/13 07:46:55;;;;;;;6.22;3.72;;;;;;;35.11;25.44;99963.16;4859346;29;20049;-40
2023/09/13 07:49:21;;;;;;;5.10;3.72;;;;;;;35.09;25.20;99958.03;4858675;29;20356;-42
2023/09/13 07:51:47;;;;;;;6.60;4.03;;;;;;;33.96;26.61;99964.09;4858756;29;20030;-40
2023/09/13 07:54:12;;;;;;;7.50;3.17;;;;;;;33.35;27.26;99956.97;4857776;29;20045;-40
2023/09/13 07:56:38;;;;;;;7.75;3.35;;;;;;;32.66;28.62;99951.44;4857298;29;20120;-40
2023/09/13 07:59:04;;;;;;;6.80;3.40;;;;;;;32.11;29.54;99944.56;4857036;29;20041;-40
2023/09/13 08:01:29;;;;;;;10.18;5.47;;;;;;;32.00;30.04;99948.91;4857268;29;20034;-42
2023/09/13 08:03:55;;;;;;;8.95;4.63;;;;;;;32.13;29.39;99945.81;4856710;29;20029;-41
2023/09/13 08:06:22;;;;;;;5.47;3.65;;;;;;;31.80;29.47;99943.16;4838995;29;20110;-40
2023/09/13 08:08:48;;;;;;;8.45;3.53;;;;;;;31.74;30.11;99944.53;4839326;29;20056;-42
2023/09/13 08:11:14;;;;;;;7.63;3.70;;;;;;;31.77;30.41;99941.06;4839259;29;20443;-42
2023/09/13 08:13:40;;;;;;;7.25;3.00;;;;;;;31.82;29.71;99942.81;4838921;29;20117;-42
2023/09/13 08:16:05;;;;;;;6.47;3.60;;;;;;;32.14;29.33;99944.69;4838851;29;20032;-40
2023/09/13 08:18:31;;;;;;;6.70;3.50;;;;;;;33.10;28.24;99948.81;4840166;29;20026;-39
2023/09/13 08:20:56;;;;;;;4.28;3.17;;;;;;;32.44;29.28;99929.88;4839982;29;20082;-40
2023/09/13 08:23:21;;;;;;;6.65;3.50;;;;;;;31.79;29.92;99940.72;4839628;29;20068;-40
2023/09/13 08:25:47;;;;;;;5.70;3.50;;;;;;;32.95;28.41;99940.47;4839744;29;20507;-40
2023/09/13 08:28:12;;;;;;;8.02;3.70;;;;;;;33.48;27.73;99938.41;4840037;29;20029;-40
2023/09/13 08:30:38;;;;;;;6.88;3.67;;;;;;;33.92;27.22;99938.38;4839620;29;20030;-40
2023/09/13 08:33:03;;;;;;;5.40;4.00;;;;;;;34.54;26.50;99933.16;4839432;29;20038;-40
2023/09/13 08:35:29;;;;;;;7.40;3.58;;;;;;;35.00;25.78;99932.56;4839906;29;20029;-42
2023/09/13 08:37:54;;;;;;;6.68;3.80;;;;;;;34.63;26.26;99935.69;4839342;29;20383;-41
2023/09/13 08:40:20;;;;;;;8.07;3.60;;;;;;;34.69;26.24;99933.47;4839222;29;20026;-41
2023/09/13 08:42:46;;;;;;;7.25;4.15;;;;;;;34.85;25.97;99931.47;4839469;29;20018;-42
2023/09/13 08:45:13;;;;;;;6.97;3.15;;;;;;;33.60;27.30;99930.06;4839724;29;20026;-43
2023/09/13 08:47:42;;;;;;;6.90;3.38;;;;;;;32.77;27.79;99928.91;4839535;29;20090;-40
2023/09/13 08:50:08;;;;;;;7.10;2.63;;;;;;;32.46;27.68;99922.88;4839665;29;20398;-41
2023/09/13 08:52:35;;;;;;;5.63;3.25;;;;;;;32.63;27.67;99930.09;4845131;29;20104;-40
2023/09/13 08:55:01;;;;;;;5.00;3.30;;;;;;;32.89;27.82;99923.38;4847971;29;20109;-40
2023/09/13 08:57:28;;;;;;;7.72;3.30;;;;;;;32.91;27.74;99915.56;4848480;29;20388;-40
2023/09/13 08:59:53;;;;;;;5.15;3.58;;;;;;;32.79;27.71;99918.38;4847255;29;20073;-41
2023/09/13 09:02:22;;;;;;;8.43;3.33;;;;;;;33.14;27.83;99909.53;4848953;29;20155;-41
2023/09/13 09:04:49;;;;;;;6.65;3.17;;;;;;;33.66;26.38;99911.31;4848870;29;20124;-41
2023/09/13 09:07:17;;;;;;;4.30;3.13;;;;;;;33.07;27.00;99908.16;4849289;29;20098;-41
2023/09/13 09:09:46;;;;;;;4.05;3.15;;;;;;;33.04;26.95;99906.09;4849413;29;20101;-45
2023/09/13 09:12:15;;;;;;;4.55;3.25;;;;;;;32.57;27.67;99901.19;4849349;29;20037;-40
2023/09/13 09:14:43;;;;;;;6.20;3.22;;;;;;;32.38;28.09;99901.75;4846725;29;20026;-43
2023/09/13 09:17:09;;;;;;;5.20;3.13;;;;;;;32.49;28.09;99902.91;4847514;29;20030;-41
2023/09/13 09:19:35;;;;;;;5.03;3.70;;;;;;;32.56;27.87;99901.50;4849078;29;20030;-41
2023/09/13 09:22:02;;;;;;;7.57;4.60;;;;;;;32.92;28.26;99903.41;4847318;29;20022;-40
2023/09/13 09:24:29;;;;;;;6.63;3.40;;;;;;;33.13;27.28;99905.97;4848976;29;20032;-42
2023/09/13 09:26:55;;;;;;;4.88;3.30;;;;;;;32.33;28.20;99902.81;4848241;29;20033;-41
2023/09/13 09:29:33;;;;;;;10.93;3.70;;;;;;;32.05;28.75;99897.22;4850146;29;20026;-44
2023/09/13 09:31:59;;;;;;;7.43;3.55;;;;;;;32.21;29.09;99891.81;4851501;29;20022;-41
2023/09/13 09:34:31;;;;;;;7.07;3.58;;;;;;;32.58;28.19;99885.44;4850457;29;20037;-40
2023/09/13 09:37:04;;;;;;;7.95;3.55;;;;;;;32.78;27.57;99878.19;4851689;29;20022;-41
2023/09/13 09:39:30;;;;;;;5.25;3.40;;;;;;;32.92;27.61;99873.09;4854627;29;20496;-41
2023/09/13 09:41:59;;;;;;;6.55;3.80;;;;;;;32.80;28.13;99875.88;4851120;29;20026;-40
2023/09/13 09:44:27;;;;;;;7.80;3.40;;;;;;;32.91;27.14;99872.25;4851692;29;20033;-41
2023/09/13 09:46:53;;;;;;;5.78;3.78;;;;;;;32.53;28.10;99876.25;4850577;29;20068;-41
2023/09/13 09:49:18;;;;;;;7.60;3.97;;;;;;;32.48;28.22;99875.69;4850979;29;20053;-42
2023/09/13 09:51:44;;;;;;;7.28;3.80;;;;;;;32.21;28.30;99855.22;4850253;29;20037;-45
2023/09/13 09:54:10;;;;;;;6.35;3.63;;;;;;;32.03;28.51;99868.44;4858584;29;20029;-40
2023/09/13 09:56:35;;;;;;;6.85;4.35;;;;;;;32.19;28.13;99865.78;4859480;29;20034;-39
2023/09/13 09:59:01;;;;;;;6.68;4.22;;;;;;;31.99;28.35;99861.97;4859478;29;20053;-40
2023/09/13 10:01:27;;;;;;;7.43;4.25;;;;;;;31.79;28.43;99850.75;4859650;29;20166;-45
2023/09/13 10:03:56;;;;;;;6.28;3.67;;;;;;;31.10;29.22;99855.09;4859825;29;20041;-44
2023/09/13 10:06:22;;;;;;;9.45;3.70;;;;;;;31.34;29.15;99857.91;4860066;29;20121;-39
2023/09/13 10:08:49;;;;;;;5.93;4.03;;;;;;;31.37;29.52;99848.97;4860237;29;20061;-43
2023/09/13 10:11:19;;;;;;;6.38;3.80;;;;;;;31.53;29.73;99838.16;4852912;29;20038;-41
2023/09/13 10:13:46;;;;;;;4.95;3.60;;;;;;;31.72;28.95;99840.34;4840733;29;20040;-40
2023/09/13 10:16:16;;;;;;;6.85;3.97;;;;;;;32.01;27.91;99841.25;4840866;29;20033;-41
2023/09/13 10:18:48;;;;;;;7.53;3.63;;;;;;;31.28;28.81;99831.78;4840634;29;20057;-40
2023/09/13 10:21:25;;;;;;;5.00;3.40;;;;;;;31.13;28.79;99835.97;4840444;29;20037;-40
2023/09/13 10:24:01;;;;;;;5.88;3.45;;;;;;;31.21;29.13;99831.53;4840082;29;20029;-40
2023/09/13 10:26:34;;;;;;;7.97;3.50;;;;;;;30.43;30.36;99833.03;4840058;29;20113;-41
2023/09/13 10:29:23;;;;;;;5.95;3.08;;;;;;;30.79;29.50;99829.66;4840449;29;20044;-40
2023/09/13 10:31:51;;;;;;;6.18;3.67;;;;;;;30.48;29.97;99829.28;4840276;29;20026;-40
2023/09/13 10:34:23;;;;;;;15.70;3.47;;;;;;;30.52;30.18;99821.97;4838693;29;20353;-41
2023/09/13 10:36:55;;;;;;;6.60;3.53;;;;;;;30.89;29.51;99813.91;4840221;29;20060;-43
2023/09/13 10:39:30;;;;;;;4.85;3.63;;;;;;;31.01;30.03;99813.16;4839516;29;20522;-41
2023/09/13 10:42:07;;;;;;;5.47;3.30;;;;;;;30.62;29.35;99816.09;4840498;29;20025;-40
2023/09/13 10:44:35;;;;;;;5.15;3.47;;;;;;;30.51;29.97;99810.19;4839768;29;20061;-44
2023/09/13 10:47:02;;;;;;;5.30;3.30;;;;;;;30.72;30.09;99820.34;4850146;29;20069;-39
2023/09/13 10:49:28;;;;;;;6.97;3.55;;;;;;;31.07;29.21;99804.38;4856076;29;20135;-41
2023/09/13 10:51:56;;;;;;;7.05;3.70;;;;;;;31.25;28.98;99798.69;4857872;29;20214;-40
2023/09/13 10:54:22;;;;;;;5.30;3.25;;;;;;;31.64;28.74;99793.69;4859341;29;20029;-40
2023/09/13 10:56:49;;;;;;;4.80;3.65;;;;;;;31.34;28.92;99796.63;4859211;29;20483;-40
2023/09/13 10:59:18;;;;;;;5.68;3.50;;;;;;;31.52;29.28;99792.53;4858820;29;20498;-41
2023/09/13 11:01:47;;;;;;;7.25;3.85;;;;;;;31.44;29.27;99779.69;4852771;29;20037;-41
2023/09/13 11:04:19;;;;;;;8.05;4.00;;;;;;;31.42;29.23;99783.94;4849490;29;20033;-40
2023/09/13 11:06:45;;;;;;;5.68;4.25;;;;;;;31.90;29.35;99785.06;4849590;29;20111;-41
2023/09/13 11:09:32;;;;;;;6.25;4.13;;;;;;;32.94;28.11;99782.59;4849992;29;20071;-42
2023/09/13 11:11:59;;;;;;;9.40;4.03;;;;;;;33.02;27.29;99783.59;4853791;29;20028;-40
2023/09/13 11:14:29;;;;;;;5.72;4.10;;;;;;;33.06;27.43;99782.50;4858765;29;20037;-39
2023/09/13 11:16:57;;;;;;;5.78;3.78;;;;;;;33.31;26.84;99780.41;4858923;29;20033;-42
2023/09/13 11:19:28;;;;;;;6.03;3.78;;;;;;;34.21;25.90;99781.72;4858837;29;20036;-40
2023/09/13 11:22:03;;;;;;;6.32;3.50;;;;;;;33.45;26.32;99787.44;4858441;29;20034;-43
2023/09/13 11:24:34;;;;;;;5.32;3.80;;;;;;;33.35;26.61;99771.44;4858770;29;20029;-43
2023/09/13 11:27:17;;;;;;;6.38;3.90;;;;;;;33.43;26.28;99773.19;4857927;29;20046;-40
2023/09/13 11:29:50;;;;;;;4.82;3.55;;;;;;;32.80;27.20;99763.72;4858535;29;20025;-45
2023/09/13 11:32:18;;;;;;;5.00;3.60;;;;;;;33.47;26.69;99763.06;4858527;29;20113;-42